sensor_id;sensor_type;location;lat;lon;timestamp;P1;durP1;ratioP1;P2;durP2;ratioP2
21152;SDS011;10734;44.792;20.482;2022-11-03T00:01:50;145.02;;;54.72;;
21152;SDS011;10734;44.792;20.482;2022-11-03T00:04:19;148.73;;;56.17;;
21152;SDS011;10734;44.792;20.482;2022-11-03T00:06:50;143.05;;;55.88;;
21152;SDS011;10734;44.792;20.482;2022-11-03T00:11:46;150.52;;;55.30;;
21152;SDS011;10734;44.792;20.482;2022-11-03T00:14:16;129.60;;;49.38;;
21152;SDS011;10734;44.792;20.482;2022-11-03T00:16:43;122.20;;;48.33;;
21152;SDS011;10734;44.792;20.482;2022-11-03T00:19:10;122.70;;;49.55;;
21152;SDS011;10734;44.792;20.482;2022-11-03T00:21:38;129.00;;;53.80;;
21152;SDS011;10734;44.792;20.482;2022-11-03T00:24:06;115.22;;;48.67;;
21152;SDS011;10734;44.792;20.482;2022-11-03T00:26:33;109.22;;;47.60;;
21152;SDS011;10734;44.792;20.482;2022-11-03T00:29:08;118.55;;;49.17;;
21152;SDS011;10734;44.792;20.482;2022-11-03T00:31:37;111.00;;;47.10;;
21152;SDS011;10734;44.792;20.482;2022-11-03T00:34:05;129.00;;;50.15;;
21152;SDS011;10734;44.792;20.482;2022-11-03T00:36:33;137.95;;;54.00;;
21152;SDS011;10734;44.792;20.482;2022-11-03T00:39:01;151.13;;;56.17;;
21152;SDS011;10734;44.792;20.482;2022-11-03T00:41:29;141.45;;;54.58;;
21152;SDS011;10734;44.792;20.482;2022-11-03T00:43:55;156.68;;;58.38;;
21152;SDS011;10734;44.792;20.482;2022-11-03T00:46:23;145.73;;;57.03;;
21152;SDS011;10734;44.792;20.482;2022-11-03T00:48:50;155.82;;;59.88;;
21152;SDS011;10734;44.792;20.482;2022-11-03T00:51:27;147.30;;;57.58;;
21152;SDS011;10734;44.792;20.482;2022-11-03T00:53:59;149.93;;;58.58;;
21152;SDS011;10734;44.792;20.482;2022-11-03T00:56:27;143.30;;;56.90;;
21152;SDS011;10734;44.792;20.482;2022-11-03T00:58:56;143.73;;;56.45;;
21152;SDS011;10734;44.792;20.482;2022-11-03T01:01:28;148.80;;;57.17;;
21152;SDS011;10734;44.792;20.482;2022-11-03T01:04:04;156.45;;;59.35;;
21152;SDS011;10734;44.792;20.482;2022-11-03T01:06:51;154.48;;;57.67;;
21152;SDS011;10734;44.792;20.482;2022-11-03T01:09:26;143.85;;;58.10;;
21152;SDS011;10734;44.792;20.482;2022-11-03T01:11:56;142.60;;;59.22;;
21152;SDS011;10734;44.792;20.482;2022-11-03T01:14:33;138.70;;;58.38;;
21152;SDS011;10734;44.792;20.482;2022-11-03T01:17:00;147.43;;;58.15;;
21152;SDS011;10734;44.792;20.482;2022-11-03T01:19:30;142.13;;;54.80;;
21152;SDS011;10734;44.792;20.482;2022-11-03T01:21:56;130.73;;;54.53;;
21152;SDS011;10734;44.792;20.482;2022-11-03T01:24:23;133.85;;;54.70;;
21152;SDS011;10734;44.792;20.482;2022-11-03T01:26:50;127.00;;;52.17;;
21152;SDS011;10734;44.792;20.482;2022-11-03T01:29:16;118.93;;;52.88;;
21152;SDS011;10734;44.792;20.482;2022-11-03T01:31:44;126.65;;;52.15;;
21152;SDS011;10734;44.792;20.482;2022-11-03T01:34:14;123.50;;;52.33;;
21152;SDS011;10734;44.792;20.482;2022-11-03T01:36:42;125.28;;;52.03;;
21152;SDS011;10734;44.792;20.482;2022-11-03T01:39:09;129.05;;;50.63;;
21152;SDS011;10734;44.792;20.482;2022-11-03T01:41:40;122.38;;;51.45;;
21152;SDS011;10734;44.792;20.482;2022-11-03T01:46:40;140.73;;;55.47;;
21152;SDS011;10734;44.792;20.482;2022-11-03T01:49:13;136.35;;;53.55;;
21152;SDS011;10734;44.792;20.482;2022-11-03T01:51:45;142.52;;;54.15;;
21152;SDS011;10734;44.792;20.482;2022-11-03T01:54:18;140.50;;;53.00;;
21152;SDS011;10734;44.792;20.482;2022-11-03T01:56:48;153.33;;;57.00;;
21152;SDS011;10734;44.792;20.482;2022-11-03T01:59:17;137.48;;;52.97;;
21152;SDS011;10734;44.792;20.482;2022-11-03T02:01:47;140.40;;;54.28;;
21152;SDS011;10734;44.792;20.482;2022-11-03T02:04:48;155.27;;;55.53;;
21152;SDS011;10734;44.792;20.482;2022-11-03T02:09:56;156.40;;;57.05;;
21152;SDS011;10734;44.792;20.482;2022-11-03T02:12:23;149.10;;;56.50;;
21152;SDS011;10734;44.792;20.482;2022-11-03T02:14:53;145.32;;;54.67;;
21152;SDS011;10734;44.792;20.482;2022-11-03T02:17:26;151.50;;;59.22;;
21152;SDS011;10734;44.792;20.482;2022-11-03T02:20:05;152.23;;;58.30;;
21152;SDS011;10734;44.792;20.482;2022-11-03T02:27:56;162.30;;;57.28;;
21152;SDS011;10734;44.792;20.482;2022-11-03T02:30:24;152.55;;;56.45;;
21152;SDS011;10734;44.792;20.482;2022-11-03T02:32:56;144.73;;;56.05;;
21152;SDS011;10734;44.792;20.482;2022-11-03T02:35:39;148.25;;;56.83;;
21152;SDS011;10734;44.792;20.482;2022-11-03T02:38:12;147.50;;;52.72;;
21152;SDS011;10734;44.792;20.482;2022-11-03T02:40:43;131.23;;;49.47;;
21152;SDS011;10734;44.792;20.482;2022-11-03T02:43:13;125.97;;;48.70;;
21152;SDS011;10734;44.792;20.482;2022-11-03T02:45:42;142.20;;;53.17;;
21152;SDS011;10734;44.792;20.482;2022-11-03T02:48:13;125.85;;;48.60;;
21152;SDS011;10734;44.792;20.482;2022-11-03T02:50:43;130.60;;;52.20;;
21152;SDS011;10734;44.792;20.482;2022-11-03T02:53:10;131.05;;;50.15;;
21152;SDS011;10734;44.792;20.482;2022-11-03T02:55:39;135.45;;;50.63;;
21152;SDS011;10734;44.792;20.482;2022-11-03T03:03:53;133.88;;;53.75;;
21152;SDS011;10734;44.792;20.482;2022-11-03T03:06:25;152.30;;;56.40;;
21152;SDS011;10734;44.792;20.482;2022-11-03T03:08:58;131.32;;;51.17;;
21152;SDS011;10734;44.792;20.482;2022-11-03T03:11:32;129.52;;;52.17;;
21152;SDS011;10734;44.792;20.482;2022-11-03T03:14:11;131.27;;;51.28;;
21152;SDS011;10734;44.792;20.482;2022-11-03T03:16:46;116.05;;;46.55;;
21152;SDS011;10734;44.792;20.482;2022-11-03T03:25:01;134.43;;;50.50;;
21152;SDS011;10734;44.792;20.482;2022-11-03T03:27:29;139.13;;;53.95;;
21152;SDS011;10734;44.792;20.482;2022-11-03T03:30:00;143.85;;;53.92;;
21152;SDS011;10734;44.792;20.482;2022-11-03T03:32:30;144.98;;;55.53;;
21152;SDS011;10734;44.792;20.482;2022-11-03T03:35:04;160.45;;;59.25;;
21152;SDS011;10734;44.792;20.482;2022-11-03T03:37:36;140.13;;;55.08;;
21152;SDS011;10734;44.792;20.482;2022-11-03T03:40:08;133.07;;;52.30;;
21152;SDS011;10734;44.792;20.482;2022-11-03T03:42:37;151.15;;;57.92;;
21152;SDS011;10734;44.792;20.482;2022-11-03T03:45:07;153.48;;;56.17;;
21152;SDS011;10734;44.792;20.482;2022-11-03T03:47:36;142.68;;;55.83;;
21152;SDS011;10734;44.792;20.482;2022-11-03T03:50:03;159.02;;;54.83;;
21152;SDS011;10734;44.792;20.482;2022-11-03T03:52:30;153.32;;;56.10;;
21152;SDS011;10734;44.792;20.482;2022-11-03T03:55:00;153.25;;;57.38;;
21152;SDS011;10734;44.792;20.482;2022-11-03T03:57:26;138.90;;;54.60;;
21152;SDS011;10734;44.792;20.482;2022-11-03T03:59:56;144.65;;;54.42;;
21152;SDS011;10734;44.792;20.482;2022-11-03T04:02:23;158.95;;;55.38;;
21152;SDS011;10734;44.792;20.482;2022-11-03T04:04:50;149.80;;;55.17;;
21152;SDS011;10734;44.792;20.482;2022-11-03T04:07:17;152.88;;;54.17;;
21152;SDS011;10734;44.792;20.482;2022-11-03T04:10:08;149.05;;;51.92;;
21152;SDS011;10734;44.792;20.482;2022-11-03T04:12:35;161.65;;;55.88;;
21152;SDS011;10734;44.792;20.482;2022-11-03T04:15:20;151.88;;;53.35;;
21152;SDS011;10734;44.792;20.482;2022-11-03T04:18:05;154.80;;;54.03;;
21152;SDS011;10734;44.792;20.482;2022-11-03T04:20:52;162.38;;;56.13;;
21152;SDS011;10734;44.792;20.482;2022-11-03T04:23:37;159.30;;;53.92;;
21152;SDS011;10734;44.792;20.482;2022-11-03T04:26:05;158.73;;;54.03;;
21152;SDS011;10734;44.792;20.482;2022-11-03T04:28:38;164.85;;;53.45;;
21152;SDS011;10734;44.792;20.482;2022-11-03T04:31:09;149.93;;;52.20;;
21152;SDS011;10734;44.792;20.482;2022-11-03T04:33:37;156.45;;;51.25;;
21152;SDS011;10734;44.792;20.482;2022-11-03T04:36:14;144.00;;;49.70;;
21152;SDS011;10734;44.792;20.482;2022-11-03T04:38:47;144.10;;;50.92;;
21152;SDS011;10734;44.792;20.482;2022-11-03T04:41:16;144.98;;;50.50;;
21152;SDS011;10734;44.792;20.482;2022-11-03T04:43:57;149.38;;;52.13;;
21152;SDS011;10734;44.792;20.482;2022-11-03T04:46:24;136.27;;;51.80;;
21152;SDS011;10734;44.792;20.482;2022-11-03T04:48:53;146.63;;;52.50;;
21152;SDS011;10734;44.792;20.482;2022-11-03T04:51:24;164.13;;;55.15;;
21152;SDS011;10734;44.792;20.482;2022-11-03T04:53:53;162.20;;;52.20;;
21152;SDS011;10734;44.792;20.482;2022-11-03T04:56:23;154.05;;;53.65;;
21152;SDS011;10734;44.792;20.482;2022-11-03T04:58:51;152.02;;;53.83;;
21152;SDS011;10734;44.792;20.482;2022-11-03T05:01:19;160.30;;;53.38;;
21152;SDS011;10734;44.792;20.482;2022-11-03T05:03:50;131.30;;;49.78;;
21152;SDS011;10734;44.792;20.482;2022-11-03T05:06:25;162.20;;;53.03;;
21152;SDS011;10734;44.792;20.482;2022-11-03T05:09:06;163.32;;;54.70;;
21152;SDS011;10734;44.792;20.482;2022-11-03T05:14:21;175.98;;;52.13;;
21152;SDS011;10734;44.792;20.482;2022-11-03T05:16:55;155.45;;;51.58;;
21152;SDS011;10734;44.792;20.482;2022-11-03T05:19:29;173.77;;;59.92;;
21152;SDS011;10734;44.792;20.482;2022-11-03T05:21:59;197.43;;;63.10;;
21152;SDS011;10734;44.792;20.482;2022-11-03T05:24:28;185.65;;;60.47;;
21152;SDS011;10734;44.792;20.482;2022-11-03T05:26:56;189.38;;;63.40;;
21152;SDS011;10734;44.792;20.482;2022-11-03T05:32:07;174.77;;;58.40;;
21152;SDS011;10734;44.792;20.482;2022-11-03T05:34:41;175.77;;;56.85;;
21152;SDS011;10734;44.792;20.482;2022-11-03T05:39:54;186.85;;;59.42;;
21152;SDS011;10734;44.792;20.482;2022-11-03T05:44:59;172.57;;;56.33;;
21152;SDS011;10734;44.792;20.482;2022-11-03T05:47:35;163.65;;;56.15;;
21152;SDS011;10734;44.792;20.482;2022-11-03T05:50:12;160.45;;;52.85;;
21152;SDS011;10734;44.792;20.482;2022-11-03T05:52:42;152.45;;;53.63;;
21152;SDS011;10734;44.792;20.482;2022-11-03T05:55:19;150.93;;;49.70;;
21152;SDS011;10734;44.792;20.482;2022-11-03T05:57:49;142.75;;;50.15;;
21152;SDS011;10734;44.792;20.482;2022-11-03T06:03:15;126.78;;;49.30;;
21152;SDS011;10734;44.792;20.482;2022-11-03T06:05:46;130.13;;;49.08;;
21152;SDS011;10734;44.792;20.482;2022-11-03T06:08:20;128.88;;;48.58;;
21152;SDS011;10734;44.792;20.482;2022-11-03T06:10:53;121.85;;;49.03;;
21152;SDS011;10734;44.792;20.482;2022-11-03T06:13:35;134.80;;;48.83;;
21152;SDS011;10734;44.792;20.482;2022-11-03T06:16:04;127.47;;;48.53;;
21152;SDS011;10734;44.792;20.482;2022-11-03T06:18:41;131.20;;;49.90;;
21152;SDS011;10734;44.792;20.482;2022-11-03T06:21:11;126.50;;;47.60;;
21152;SDS011;10734;44.792;20.482;2022-11-03T06:23:41;133.95;;;50.28;;
21152;SDS011;10734;44.792;20.482;2022-11-03T06:26:12;141.15;;;49.95;;
21152;SDS011;10734;44.792;20.482;2022-11-03T06:28:42;120.55;;;48.30;;
21152;SDS011;10734;44.792;20.482;2022-11-03T06:31:13;130.98;;;50.83;;
21152;SDS011;10734;44.792;20.482;2022-11-03T06:33:53;134.07;;;48.70;;
21152;SDS011;10734;44.792;20.482;2022-11-03T06:36:23;130.75;;;48.40;;
21152;SDS011;10734;44.792;20.482;2022-11-03T06:38:56;123.63;;;48.50;;
21152;SDS011;10734;44.792;20.482;2022-11-03T06:41:28;131.38;;;48.95;;
21152;SDS011;10734;44.792;20.482;2022-11-03T06:43:57;122.57;;;46.75;;
21152;SDS011;10734;44.792;20.482;2022-11-03T06:46:28;122.18;;;47.90;;
21152;SDS011;10734;44.792;20.482;2022-11-03T06:48:59;138.85;;;49.15;;
21152;SDS011;10734;44.792;20.482;2022-11-03T06:51:29;135.60;;;49.90;;
21152;SDS011;10734;44.792;20.482;2022-11-03T06:54:00;135.23;;;49.77;;
21152;SDS011;10734;44.792;20.482;2022-11-03T06:56:34;153.38;;;65.47;;
21152;SDS011;10734;44.792;20.482;2022-11-03T06:59:02;129.52;;;51.58;;
21152;SDS011;10734;44.792;20.482;2022-11-03T07:01:29;138.77;;;52.42;;
21152;SDS011;10734;44.792;20.482;2022-11-03T07:04:00;132.45;;;50.38;;
21152;SDS011;10734;44.792;20.482;2022-11-03T07:06:30;131.70;;;56.08;;
21152;SDS011;10734;44.792;20.482;2022-11-03T07:09:00;127.97;;;51.67;;
21152;SDS011;10734;44.792;20.482;2022-11-03T07:11:47;132.60;;;50.50;;
21152;SDS011;10734;44.792;20.482;2022-11-03T07:16:53;119.07;;;47.80;;
21152;SDS011;10734;44.792;20.482;2022-11-03T07:19:29;114.47;;;49.00;;
21152;SDS011;10734;44.792;20.482;2022-11-03T07:22:00;113.47;;;45.42;;
21152;SDS011;10734;44.792;20.482;2022-11-03T07:24:30;102.88;;;44.60;;
21152;SDS011;10734;44.792;20.482;2022-11-03T07:29:52;80.23;;;37.00;;
21152;SDS011;10734;44.792;20.482;2022-11-03T07:32:24;89.03;;;41.78;;
21152;SDS011;10734;44.792;20.482;2022-11-03T07:37:40;72.05;;;34.97;;
21152;SDS011;10734;44.792;20.482;2022-11-03T07:40:15;81.65;;;35.83;;
21152;SDS011;10734;44.792;20.482;2022-11-03T07:42:59;78.88;;;36.28;;
21152;SDS011;10734;44.792;20.482;2022-11-03T07:50:53;93.05;;;42.75;;
21152;SDS011;10734;44.792;20.482;2022-11-03T07:53:29;82.38;;;40.13;;
21152;SDS011;10734;44.792;20.482;2022-11-03T07:55:58;81.57;;;41.47;;
21152;SDS011;10734;44.792;20.482;2022-11-03T07:58:33;78.97;;;37.60;;
21152;SDS011;10734;44.792;20.482;2022-11-03T08:01:02;81.75;;;38.38;;
21152;SDS011;10734;44.792;20.482;2022-11-03T08:03:47;74.20;;;35.13;;
21152;SDS011;10734;44.792;20.482;2022-11-03T08:06:14;70.15;;;35.35;;
21152;SDS011;10734;44.792;20.482;2022-11-03T08:08:45;76.03;;;35.80;;
21152;SDS011;10734;44.792;20.482;2022-11-03T08:11:11;75.10;;;37.80;;
21152;SDS011;10734;44.792;20.482;2022-11-03T08:13:39;71.55;;;34.78;;
21152;SDS011;10734;44.792;20.482;2022-11-03T08:16:06;75.55;;;36.47;;
21152;SDS011;10734;44.792;20.482;2022-11-03T08:18:33;68.95;;;34.80;;
21152;SDS011;10734;44.792;20.482;2022-11-03T08:20:59;73.90;;;37.40;;
21152;SDS011;10734;44.792;20.482;2022-11-03T08:23:26;65.03;;;33.20;;
21152;SDS011;10734;44.792;20.482;2022-11-03T08:25:53;60.15;;;31.20;;
21152;SDS011;10734;44.792;20.482;2022-11-03T08:28:20;58.47;;;31.40;;
21152;SDS011;10734;44.792;20.482;2022-11-03T08:30:46;63.97;;;32.28;;
21152;SDS011;10734;44.792;20.482;2022-11-03T08:33:13;57.05;;;29.73;;
21152;SDS011;10734;44.792;20.482;2022-11-03T08:35:40;49.17;;;26.05;;
21152;SDS011;10734;44.792;20.482;2022-11-03T08:38:06;50.00;;;27.80;;
21152;SDS011;10734;44.792;20.482;2022-11-03T08:40:34;46.03;;;26.17;;
21152;SDS011;10734;44.792;20.482;2022-11-03T08:43:00;44.95;;;25.98;;
21152;SDS011;10734;44.792;20.482;2022-11-03T08:45:28;41.55;;;24.33;;
21152;SDS011;10734;44.792;20.482;2022-11-03T08:47:55;39.38;;;24.15;;
21152;SDS011;10734;44.792;20.482;2022-11-03T08:50:23;40.85;;;24.45;;
21152;SDS011;10734;44.792;20.482;2022-11-03T08:52:49;42.17;;;26.05;;
21152;SDS011;10734;44.792;20.482;2022-11-03T08:55:16;42.35;;;24.63;;
21152;SDS011;10734;44.792;20.482;2022-11-03T08:57:43;46.72;;;25.63;;
21152;SDS011;10734;44.792;20.482;2022-11-03T09:00:10;40.08;;;23.45;;
21152;SDS011;10734;44.792;20.482;2022-11-03T09:02:37;43.30;;;25.05;;
21152;SDS011;10734;44.792;20.482;2022-11-03T09:05:04;44.45;;;25.27;;
21152;SDS011;10734;44.792;20.482;2022-11-03T09:07:32;42.40;;;25.27;;
21152;SDS011;10734;44.792;20.482;2022-11-03T09:10:19;39.25;;;24.42;;
21152;SDS011;10734;44.792;20.482;2022-11-03T09:12:51;39.25;;;25.35;;
21152;SDS011;10734;44.792;20.482;2022-11-03T09:15:19;39.08;;;23.98;;
21152;SDS011;10734;44.792;20.482;2022-11-03T09:17:45;35.83;;;22.48;;
21152;SDS011;10734;44.792;20.482;2022-11-03T09:20:13;41.67;;;22.30;;
21152;SDS011;10734;44.792;20.482;2022-11-03T09:22:39;36.28;;;23.42;;
21152;SDS011;10734;44.792;20.482;2022-11-03T09:25:06;40.40;;;21.52;;
21152;SDS011;10734;44.792;20.482;2022-11-03T09:27:33;37.80;;;23.05;;
21152;SDS011;10734;44.792;20.482;2022-11-03T09:30:00;41.33;;;23.08;;
21152;SDS011;10734;44.792;20.482;2022-11-03T09:32:40;38.90;;;21.88;;
21152;SDS011;10734;44.792;20.482;2022-11-03T09:35:07;38.65;;;22.15;;
21152;SDS011;10734;44.792;20.482;2022-11-03T09:37:35;40.67;;;23.40;;
21152;SDS011;10734;44.792;20.482;2022-11-03T09:40:02;33.83;;;21.67;;
21152;SDS011;10734;44.792;20.482;2022-11-03T09:42:30;37.10;;;23.90;;
21152;SDS011;10734;44.792;20.482;2022-11-03T09:44:59;37.92;;;23.10;;
21152;SDS011;10734;44.792;20.482;2022-11-03T09:47:31;37.90;;;24.98;;
21152;SDS011;10734;44.792;20.482;2022-11-03T09:50:03;43.25;;;26.08;;
21152;SDS011;10734;44.792;20.482;2022-11-03T09:52:31;43.28;;;28.10;;
21152;SDS011;10734;44.792;20.482;2022-11-03T09:54:58;45.97;;;26.98;;
21152;SDS011;10734;44.792;20.482;2022-11-03T09:57:25;40.90;;;26.27;;
21152;SDS011;10734;44.792;20.482;2022-11-03T09:59:53;41.03;;;26.08;;
21152;SDS011;10734;44.792;20.482;2022-11-03T10:02:22;39.80;;;25.77;;
21152;SDS011;10734;44.792;20.482;2022-11-03T10:04:52;39.50;;;26.50;;
21152;SDS011;10734;44.792;20.482;2022-11-03T10:07:19;46.17;;;28.77;;
21152;SDS011;10734;44.792;20.482;2022-11-03T10:09:47;42.38;;;28.15;;
21152;SDS011;10734;44.792;20.482;2022-11-03T10:12:18;45.17;;;29.10;;
21152;SDS011;10734;44.792;20.482;2022-11-03T10:14:49;46.25;;;28.00;;
21152;SDS011;10734;44.792;20.482;2022-11-03T10:17:20;51.25;;;30.60;;
21152;SDS011;10734;44.792;20.482;2022-11-03T10:19:51;45.58;;;29.92;;
21152;SDS011;10734;44.792;20.482;2022-11-03T10:22:21;53.17;;;33.42;;
21152;SDS011;10734;44.792;20.482;2022-11-03T10:24:48;53.92;;;32.53;;
21152;SDS011;10734;44.792;20.482;2022-11-03T10:27:34;50.55;;;31.20;;
21152;SDS011;10734;44.792;20.482;2022-11-03T10:30:08;50.92;;;31.60;;
21152;SDS011;10734;44.792;20.482;2022-11-03T10:32:38;55.28;;;32.60;;
21152;SDS011;10734;44.792;20.482;2022-11-03T10:41:10;56.05;;;33.42;;
21152;SDS011;10734;44.792;20.482;2022-11-03T10:43:39;48.53;;;31.85;;
21152;SDS011;10734;44.792;20.482;2022-11-03T10:46:18;55.50;;;31.13;;
21152;SDS011;10734;44.792;20.482;2022-11-03T10:51:35;49.83;;;32.25;;
21152;SDS011;10734;44.792;20.482;2022-11-03T10:54:03;55.83;;;33.42;;
21152;SDS011;10734;44.792;20.482;2022-11-03T10:56:31;62.03;;;33.42;;
21152;SDS011;10734;44.792;20.482;2022-11-03T10:58:58;54.03;;;30.40;;
21152;SDS011;10734;44.792;20.482;2022-11-03T11:01:26;55.72;;;32.60;;
21152;SDS011;10734;44.792;20.482;2022-11-03T11:03:53;61.97;;;33.80;;
21152;SDS011;10734;44.792;20.482;2022-11-03T11:06:24;64.35;;;36.92;;
21152;SDS011;10734;44.792;20.482;2022-11-03T11:08:53;65.85;;;37.28;;
21152;SDS011;10734;44.792;20.482;2022-11-03T11:11:25;65.10;;;38.00;;
21152;SDS011;10734;44.792;20.482;2022-11-03T11:16:54;59.80;;;35.80;;
21152;SDS011;10734;44.792;20.482;2022-11-03T11:19:22;63.33;;;35.80;;
21152;SDS011;10734;44.792;20.482;2022-11-03T11:29:57;74.10;;;42.70;;
21152;SDS011;10734;44.792;20.482;2022-11-03T11:35:17;75.40;;;42.63;;
21152;SDS011;10734;44.792;20.482;2022-11-03T11:37:53;92.60;;;51.90;;
21152;SDS011;10734;44.792;20.482;2022-11-03T11:48:42;100.93;;;52.33;;
21152;SDS011;10734;44.792;20.482;2022-11-03T11:51:09;105.85;;;52.65;;
21152;SDS011;10734;44.792;20.482;2022-11-03T11:53:40;117.72;;;53.83;;
21152;SDS011;10734;44.792;20.482;2022-11-03T11:56:11;110.22;;;56.03;;
21152;SDS011;10734;44.792;20.482;2022-11-03T12:01:19;109.25;;;53.60;;
21152;SDS011;10734;44.792;20.482;2022-11-03T12:03:54;115.93;;;56.77;;
21152;SDS011;10734;44.792;20.482;2022-11-03T12:06:33;122.25;;;58.70;;
21152;SDS011;10734;44.792;20.482;2022-11-03T12:11:49;122.03;;;57.55;;
21152;SDS011;10734;44.792;20.482;2022-11-03T12:14:23;150.38;;;67.53;;
21152;SDS011;10734;44.792;20.482;2022-11-03T12:16:51;121.07;;;59.15;;
21152;SDS011;10734;44.792;20.482;2022-11-03T12:19:34;126.03;;;58.85;;
21152;SDS011;10734;44.792;20.482;2022-11-03T12:22:02;134.15;;;58.97;;
21152;SDS011;10734;44.792;20.482;2022-11-03T12:27:00;131.15;;;57.97;;
21152;SDS011;10734;44.792;20.482;2022-11-03T12:29:28;141.00;;;60.53;;
21152;SDS011;10734;44.792;20.482;2022-11-03T12:31:55;129.40;;;56.97;;
21152;SDS011;10734;44.792;20.482;2022-11-03T12:34:21;123.97;;;57.33;;
21152;SDS011;10734;44.792;20.482;2022-11-03T12:36:48;129.40;;;57.35;;
21152;SDS011;10734;44.792;20.482;2022-11-03T12:39:21;126.55;;;58.88;;
21152;SDS011;10734;44.792;20.482;2022-11-03T12:41:47;120.65;;;56.75;;
21152;SDS011;10734;44.792;20.482;2022-11-03T12:44:14;112.72;;;54.85;;
21152;SDS011;10734;44.792;20.482;2022-11-03T12:46:41;108.10;;;56.50;;
21152;SDS011;10734;44.792;20.482;2022-11-03T12:49:08;104.40;;;53.05;;
21152;SDS011;10734;44.792;20.482;2022-11-03T12:51:34;114.40;;;57.13;;
21152;SDS011;10734;44.792;20.482;2022-11-03T12:54:01;103.55;;;54.88;;
21152;SDS011;10734;44.792;20.482;2022-11-03T12:56:28;103.30;;;56.65;;
21152;SDS011;10734;44.792;20.482;2022-11-03T12:58:54;108.40;;;55.55;;
21152;SDS011;10734;44.792;20.482;2022-11-03T13:01:21;105.18;;;56.88;;
21152;SDS011;10734;44.792;20.482;2022-11-03T13:03:48;102.05;;;54.85;;
21152;SDS011;10734;44.792;20.482;2022-11-03T13:06:14;97.65;;;53.63;;
21152;SDS011;10734;44.792;20.482;2022-11-03T13:08:41;99.68;;;54.22;;
21152;SDS011;10734;44.792;20.482;2022-11-03T13:11:11;98.07;;;54.20;;
21152;SDS011;10734;44.792;20.482;2022-11-03T13:13:56;91.60;;;51.92;;
21152;SDS011;10734;44.792;20.482;2022-11-03T13:16:24;93.03;;;52.75;;
21152;SDS011;10734;44.792;20.482;2022-11-03T13:18:51;84.10;;;49.33;;
21152;SDS011;10734;44.792;20.482;2022-11-03T13:21:17;82.88;;;49.75;;
21152;SDS011;10734;44.792;20.482;2022-11-03T13:23:44;82.60;;;50.67;;
21152;SDS011;10734;44.792;20.482;2022-11-03T13:26:11;73.43;;;46.67;;
21152;SDS011;10734;44.792;20.482;2022-11-03T13:28:47;84.00;;;49.08;;
21152;SDS011;10734;44.792;20.482;2022-11-03T13:31:15;81.30;;;46.72;;
21152;SDS011;10734;44.792;20.482;2022-11-03T13:33:42;74.88;;;47.78;;
21152;SDS011;10734;44.792;20.482;2022-11-03T13:36:08;79.13;;;49.72;;
21152;SDS011;10734;44.792;20.482;2022-11-03T13:38:35;73.68;;;46.25;;
21152;SDS011;10734;44.792;20.482;2022-11-03T13:41:02;78.80;;;48.30;;
21152;SDS011;10734;44.792;20.482;2022-11-03T13:46:00;70.90;;;45.33;;
21152;SDS011;10734;44.792;20.482;2022-11-03T13:48:29;72.00;;;49.05;;
21152;SDS011;10734;44.792;20.482;2022-11-03T13:51:15;75.82;;;48.22;;
21152;SDS011;10734;44.792;20.482;2022-11-03T13:53:44;74.68;;;47.85;;
21152;SDS011;10734;44.792;20.482;2022-11-03T13:56:30;72.25;;;47.75;;
21152;SDS011;10734;44.792;20.482;2022-11-03T13:59:17;76.63;;;48.28;;
21152;SDS011;10734;44.792;20.482;2022-11-03T14:01:52;66.85;;;44.47;;
21152;SDS011;10734;44.792;20.482;2022-11-03T14:04:39;60.80;;;41.17;;
21152;SDS011;10734;44.792;20.482;2022-11-03T14:07:05;73.78;;;45.55;;
21152;SDS011;10734;44.792;20.482;2022-11-03T14:09:32;66.90;;;44.28;;
21152;SDS011;10734;44.792;20.482;2022-11-03T14:12:05;67.45;;;45.08;;
21152;SDS011;10734;44.792;20.482;2022-11-03T14:14:50;73.47;;;47.35;;
21152;SDS011;10734;44.792;20.482;2022-11-03T14:17:17;79.40;;;47.22;;
21152;SDS011;10734;44.792;20.482;2022-11-03T14:19:43;70.15;;;43.45;;
21152;SDS011;10734;44.792;20.482;2022-11-03T14:22:17;73.07;;;45.58;;
21152;SDS011;10734;44.792;20.482;2022-11-03T14:24:45;69.47;;;44.58;;
21152;SDS011;10734;44.792;20.482;2022-11-03T14:27:11;72.88;;;46.85;;
21152;SDS011;10734;44.792;20.482;2022-11-03T14:29:38;61.03;;;40.40;;
21152;SDS011;10734;44.792;20.482;2022-11-03T14:32:05;62.83;;;42.25;;
21152;SDS011;10734;44.792;20.482;2022-11-03T14:34:32;62.92;;;41.05;;
21152;SDS011;10734;44.792;20.482;2022-11-03T14:36:58;68.25;;;43.05;;
21152;SDS011;10734;44.792;20.482;2022-11-03T14:39:26;56.65;;;36.72;;
21152;SDS011;10734;44.792;20.482;2022-11-03T14:41:53;63.63;;;41.85;;
21152;SDS011;10734;44.792;20.482;2022-11-03T14:44:32;73.50;;;44.75;;
21152;SDS011;10734;44.792;20.482;2022-11-03T14:47:01;72.57;;;45.22;;
21152;SDS011;10734;44.792;20.482;2022-11-03T14:49:29;66.30;;;42.88;;
21152;SDS011;10734;44.792;20.482;2022-11-03T14:51:57;64.63;;;41.65;;
21152;SDS011;10734;44.792;20.482;2022-11-03T14:54:24;69.55;;;43.92;;
21152;SDS011;10734;44.792;20.482;2022-11-03T14:56:51;77.82;;;49.33;;
21152;SDS011;10734;44.792;20.482;2022-11-03T14:59:19;74.15;;;44.00;;
21152;SDS011;10734;44.792;20.482;2022-11-03T15:01:46;69.80;;;41.92;;
21152;SDS011;10734;44.792;20.482;2022-11-03T15:04:14;74.03;;;43.05;;
21152;SDS011;10734;44.792;20.482;2022-11-03T15:06:41;77.53;;;44.05;;
21152;SDS011;10734;44.792;20.482;2022-11-03T15:09:08;76.85;;;44.38;;
21152;SDS011;10734;44.792;20.482;2022-11-03T15:11:40;85.43;;;42.83;;
21152;SDS011;10734;44.792;20.482;2022-11-03T15:14:07;88.93;;;48.25;;
21152;SDS011;10734;44.792;20.482;2022-11-03T15:16:34;89.07;;;47.95;;
21152;SDS011;10734;44.792;20.482;2022-11-03T15:19:04;86.50;;;49.10;;
21152;SDS011;10734;44.792;20.482;2022-11-03T15:21:31;84.68;;;47.10;;
21152;SDS011;10734;44.792;20.482;2022-11-03T15:23:58;88.38;;;46.97;;
21152;SDS011;10734;44.792;20.482;2022-11-03T15:26:46;90.43;;;48.75;;
21152;SDS011;10734;44.792;20.482;2022-11-03T15:29:13;89.20;;;48.33;;
21152;SDS011;10734;44.792;20.482;2022-11-03T15:31:39;88.95;;;47.55;;
21152;SDS011;10734;44.792;20.482;2022-11-03T15:34:12;87.63;;;46.50;;
21152;SDS011;10734;44.792;20.482;2022-11-03T15:36:39;100.70;;;49.58;;
21152;SDS011;10734;44.792;20.482;2022-11-03T15:39:06;90.82;;;48.60;;
21152;SDS011;10734;44.792;20.482;2022-11-03T15:41:32;97.03;;;47.22;;
21152;SDS011;10734;44.792;20.482;2022-11-03T15:43:59;101.47;;;49.97;;
21152;SDS011;10734;44.792;20.482;2022-11-03T15:46:26;96.03;;;49.17;;
21152;SDS011;10734;44.792;20.482;2022-11-03T15:48:52;85.10;;;45.17;;
21152;SDS011;10734;44.792;20.482;2022-11-03T15:51:21;87.93;;;46.25;;
21152;SDS011;10734;44.792;20.482;2022-11-03T15:53:48;104.55;;;50.58;;